Terminal Aerodrome Forecast
Issued by NWS

Home | Current Version | Previous Version | Text Only | Print | Product List | Glossary On
Versions: 1 2 3 4 5 6 7 8 9 10 11 12 13 14 15 16 17 18 19 20 21 22 23 24 25 26 27 28 29 30 31 32 33 34 35 36 37 38 39 40 41 42
802
FTAK31 PANC 081741
TAFACV
TAF
PACV 081741Z 0818/0918 10011KT P6SM VCSH BKN035
      TEMPO 0818/0822 10011G18KT 6SM -SHRA BR BKN025
     FM090000 VRB06KT P6SM SCT060 BKN100
     FM091500 VRB03KT P6SM VCSH BKN060=

USA.gov is the U.S. government's official web portal to all federal, state and local government web resources and services.